sensor_id;sensor_type;location;lat;lon;timestamp;P1;durP1;ratioP1;P2;durP2;ratioP2
10440;SDS011;5268;49.346;9.522;2022-09-09T03:22:30;6.57;;;3.00;;
10440;SDS011;5268;49.346;9.522;2022-09-09T03:27:33;4.57;;;2.45;;
10440;SDS011;5268;49.346;9.522;2022-09-09T03:32:35;3.88;;;2.60;;
10440;SDS011;5268;49.346;9.522;2022-09-09T03:37:38;4.18;;;2.47;;
10440;SDS011;5268;49.346;9.522;2022-09-09T03:42:41;5.70;;;2.90;;
10440;SDS011;5268;49.346;9.522;2022-09-09T03:47:43;4.70;;;2.60;;
10440;SDS011;5268;49.346;9.522;2022-09-09T03:52:47;6.50;;;2.83;;
10440;SDS011;5268;49.346;9.522;2022-09-09T03:57:49;5.45;;;2.40;;
10440;SDS011;5268;49.346;9.522;2022-09-09T04:02:51;6.38;;;3.00;;
10440;SDS011;5268;49.346;9.522;2022-09-09T04:07:57;4.88;;;2.97;;
10440;SDS011;5268;49.346;9.522;2022-09-09T04:12:59;5.82;;;3.28;;
10440;SDS011;5268;49.346;9.522;2022-09-09T04:18:01;3.85;;;2.40;;
10440;SDS011;5268;49.346;9.522;2022-09-09T04:23:04;3.78;;;2.60;;
10440;SDS011;5268;49.346;9.522;2022-09-09T04:28:06;4.00;;;2.53;;
10440;SDS011;5268;49.346;9.522;2022-09-09T04:33:09;4.30;;;2.70;;
10440;SDS011;5268;49.346;9.522;2022-09-09T04:38:13;6.72;;;2.97;;
10440;SDS011;5268;49.346;9.522;2022-09-09T04:43:15;5.28;;;2.65;;
10440;SDS011;5268;49.346;9.522;2022-09-09T04:48:19;4.30;;;2.78;;
10440;SDS011;5268;49.346;9.522;2022-09-09T04:53:23;3.25;;;2.50;;
10440;SDS011;5268;49.346;9.522;2022-09-09T04:58:27;3.28;;;2.53;;
10440;SDS011;5268;49.346;9.522;2022-09-09T05:03:29;3.50;;;2.20;;
10440;SDS011;5268;49.346;9.522;2022-09-09T05:08:33;4.38;;;2.17;;
10440;SDS011;5268;49.346;9.522;2022-09-09T05:13:35;4.65;;;2.53;;
10440;SDS011;5268;49.346;9.522;2022-09-09T05:18:37;5.15;;;2.58;;
10440;SDS011;5268;49.346;9.522;2022-09-09T05:23:41;4.80;;;2.55;;
10440;SDS011;5268;49.346;9.522;2022-09-09T05:28:43;3.70;;;2.40;;
10440;SDS011;5268;49.346;9.522;2022-09-09T05:33:46;5.07;;;2.67;;
10440;SDS011;5268;49.346;9.522;2022-09-09T05:38:50;5.63;;;2.50;;
10440;SDS011;5268;49.346;9.522;2022-09-09T05:43:53;4.85;;;2.60;;
10440;SDS011;5268;49.346;9.522;2022-09-09T05:48:56;4.72;;;2.70;;
10440;SDS011;5268;49.346;9.522;2022-09-09T05:53:59;3.67;;;2.55;;
10440;SDS011;5268;49.346;9.522;2022-09-09T05:59:01;5.72;;;2.47;;
10440;SDS011;5268;49.346;9.522;2022-09-09T06:04:04;3.65;;;2.42;;
10440;SDS011;5268;49.346;9.522;2022-09-09T06:09:08;5.53;;;2.70;;
10440;SDS011;5268;49.346;9.522;2022-09-09T06:14:11;7.05;;;3.05;;
10440;SDS011;5268;49.346;9.522;2022-09-09T06:19:13;6.20;;;2.90;;
10440;SDS011;5268;49.346;9.522;2022-09-09T06:24:17;6.03;;;2.40;;
10440;SDS011;5268;49.346;9.522;2022-09-09T06:29:20;3.22;;;2.17;;
10440;SDS011;5268;49.346;9.522;2022-09-09T06:34:21;5.45;;;2.30;;
10440;SDS011;5268;49.346;9.522;2022-09-09T06:39:25;2.60;;;2.05;;
10440;SDS011;5268;49.346;9.522;2022-09-09T06:44:27;4.28;;;2.10;;
10440;SDS011;5268;49.346;9.522;2022-09-09T06:49:33;2.67;;;1.85;;
10440;SDS011;5268;49.346;9.522;2022-09-09T06:54:36;4.72;;;1.83;;
10440;SDS011;5268;49.346;9.522;2022-09-09T06:59:38;2.35;;;1.40;;
10440;SDS011;5268;49.346;9.522;2022-09-09T07:04:40;3.30;;;1.60;;
10440;SDS011;5268;49.346;9.522;2022-09-09T07:09:44;5.20;;;1.50;;
10440;SDS011;5268;49.346;9.522;2022-09-09T07:14:46;3.00;;;1.60;;
10440;SDS011;5268;49.346;9.522;2022-09-09T07:19:48;4.15;;;1.80;;
10440;SDS011;5268;49.346;9.522;2022-09-09T07:24:51;4.70;;;1.48;;
10440;SDS011;5268;49.346;9.522;2022-09-09T07:29:53;3.63;;;1.20;;
10440;SDS011;5268;49.346;9.522;2022-09-09T07:34:55;4.30;;;1.17;;
10440;SDS011;5268;49.346;9.522;2022-09-09T07:39:59;4.28;;;1.27;;
10440;SDS011;5268;49.346;9.522;2022-09-09T07:45:03;3.35;;;1.10;;
10440;SDS011;5268;49.346;9.522;2022-09-09T07:50:06;1.98;;;1.20;;
10440;SDS011;5268;49.346;9.522;2022-09-09T07:55:10;4.70;;;1.02;;
10440;SDS011;5268;49.346;9.522;2022-09-09T08:00:13;2.10;;;1.10;;
10440;SDS011;5268;49.346;9.522;2022-09-09T08:05:15;3.45;;;1.20;;
10440;SDS011;5268;49.346;9.522;2022-09-09T08:10:19;3.13;;;0.93;;
10440;SDS011;5268;49.346;9.522;2022-09-09T08:15:21;3.42;;;1.33;;
10440;SDS011;5268;49.346;9.522;2022-09-09T08:20:23;4.72;;;1.20;;
10440;SDS011;5268;49.346;9.522;2022-09-09T08:25:26;4.07;;;1.23;;
10440;SDS011;5268;49.346;9.522;2022-09-09T08:30:28;4.35;;;1.35;;
10440;SDS011;5268;49.346;9.522;2022-09-09T08:35:30;3.25;;;1.10;;
10440;SDS011;5268;49.346;9.522;2022-09-09T08:40:34;5.85;;;1.40;;
10440;SDS011;5268;49.346;9.522;2022-09-09T08:45:43;5.35;;;1.30;;
10440;SDS011;5268;49.346;9.522;2022-09-09T08:50:51;4.60;;;1.33;;
10440;SDS011;5268;49.346;9.522;2022-09-09T08:55:56;6.68;;;1.20;;
10440;SDS011;5268;49.346;9.522;2022-09-09T09:01:09;6.38;;;1.40;;
10440;SDS011;5268;49.346;9.522;2022-09-09T09:06:26;5.63;;;1.30;;
10440;SDS011;5268;49.346;9.522;2022-09-09T09:11:43;3.92;;;1.25;;
10440;SDS011;5268;49.346;9.522;2022-09-09T09:16:51;3.45;;;1.23;;
10440;SDS011;5268;49.346;9.522;2022-09-09T09:21:57;3.53;;;1.30;;
10440;SDS011;5268;49.346;9.522;2022-09-09T09:27:11;3.42;;;1.20;;
10440;SDS011;5268;49.346;9.522;2022-09-09T09:32:16;4.70;;;1.50;;
10440;SDS011;5268;49.346;9.522;2022-09-09T09:37:22;4.03;;;1.30;;
10440;SDS011;5268;49.346;9.522;2022-09-09T09:42:29;4.78;;;1.20;;
10440;SDS011;5268;49.346;9.522;2022-09-09T09:47:32;4.38;;;1.33;;
10440;SDS011;5268;49.346;9.522;2022-09-09T09:52:34;4.35;;;1.20;;
10440;SDS011;5268;49.346;9.522;2022-09-09T09:57:38;5.10;;;1.40;;
10440;SDS011;5268;49.346;9.522;2022-09-09T10:02:41;3.38;;;1.27;;
10440;SDS011;5268;49.346;9.522;2022-09-09T10:07:45;4.32;;;1.30;;
10440;SDS011;5268;49.346;9.522;2022-09-09T10:12:52;3.97;;;1.40;;
10440;SDS011;5268;49.346;9.522;2022-09-09T10:18:07;9.02;;;2.03;;
10440;SDS011;5268;49.346;9.522;2022-09-09T10:23:26;7.30;;;2.15;;
10440;SDS011;5268;49.346;9.522;2022-09-09T10:28:40;6.47;;;1.50;;
10440;SDS011;5268;49.346;9.522;2022-09-09T10:33:57;4.78;;;1.48;;
10440;SDS011;5268;49.346;9.522;2022-09-09T10:39:11;3.90;;;1.30;;
10440;SDS011;5268;49.346;9.522;2022-09-09T10:49:59;7.68;;;1.63;;
10440;SDS011;5268;49.346;9.522;2022-09-09T10:55:23;6.80;;;1.98;;
10440;SDS011;5268;49.346;9.522;2022-09-09T11:00:31;2.95;;;1.33;;
10440;SDS011;5268;49.346;9.522;2022-09-09T11:05:41;3.05;;;1.10;;
10440;SDS011;5268;49.346;9.522;2022-09-09T11:10:45;3.67;;;1.02;;
10440;SDS011;5268;49.346;9.522;2022-09-09T11:15:54;4.55;;;1.20;;
10440;SDS011;5268;49.346;9.522;2022-09-09T11:21:01;2.47;;;1.05;;
10440;SDS011;5268;49.346;9.522;2022-09-09T11:26:08;3.03;;;1.10;;
10440;SDS011;5268;49.346;9.522;2022-09-09T11:31:21;3.63;;;1.00;;
10440;SDS011;5268;49.346;9.522;2022-09-09T11:36:43;3.60;;;0.90;;
10440;SDS011;5268;49.346;9.522;2022-09-09T11:42:06;2.78;;;0.93;;
10440;SDS011;5268;49.346;9.522;2022-09-09T11:47:20;3.47;;;0.80;;
10440;SDS011;5268;49.346;9.522;2022-09-09T11:52:35;2.40;;;0.63;;
10440;SDS011;5268;49.346;9.522;2022-09-09T11:57:39;3.67;;;0.90;;
10440;SDS011;5268;49.346;9.522;2022-09-09T12:02:48;2.28;;;0.80;;
10440;SDS011;5268;49.346;9.522;2022-09-09T12:07:52;2.20;;;0.90;;
10440;SDS011;5268;49.346;9.522;2022-09-09T12:13:07;4.25;;;1.00;;
10440;SDS011;5268;49.346;9.522;2022-09-09T12:18:21;3.72;;;0.90;;
10440;SDS011;5268;49.346;9.522;2022-09-09T12:23:28;3.28;;;0.90;;
10440;SDS011;5268;49.346;9.522;2022-09-09T12:28:42;3.40;;;1.00;;
10440;SDS011;5268;49.346;9.522;2022-09-09T12:33:53;2.42;;;0.93;;
10440;SDS011;5268;49.346;9.522;2022-09-09T12:38:55;1.98;;;0.90;;
10440;SDS011;5268;49.346;9.522;2022-09-09T12:44:04;4.25;;;1.00;;
10440;SDS011;5268;49.346;9.522;2022-09-09T12:49:22;2.58;;;0.98;;
10440;SDS011;5268;49.346;9.522;2022-09-09T12:54:34;3.08;;;0.98;;
10440;SDS011;5268;49.346;9.522;2022-09-09T12:59:38;2.70;;;0.95;;
10440;SDS011;5268;49.346;9.522;2022-09-09T13:04:43;3.30;;;1.05;;
10440;SDS011;5268;49.346;9.522;2022-09-09T13:09:47;1.75;;;0.80;;
10440;SDS011;5268;49.346;9.522;2022-09-09T13:14:50;2.05;;;0.80;;
10440;SDS011;5268;49.346;9.522;2022-09-09T13:19:56;3.20;;;0.60;;
10440;SDS011;5268;49.346;9.522;2022-09-09T13:25:03;1.40;;;0.65;;
10440;SDS011;5268;49.346;9.522;2022-09-09T13:30:19;1.70;;;0.60;;
10440;SDS011;5268;49.346;9.522;2022-09-09T13:35:25;1.63;;;0.70;;
10440;SDS011;5268;49.346;9.522;2022-09-09T13:40:27;1.98;;;0.85;;
10440;SDS011;5268;49.346;9.522;2022-09-09T13:45:30;1.52;;;0.60;;
10440;SDS011;5268;49.346;9.522;2022-09-09T13:50:36;1.50;;;0.50;;
10440;SDS011;5268;49.346;9.522;2022-09-09T13:55:39;1.70;;;0.70;;
10440;SDS011;5268;49.346;9.522;2022-09-09T14:00:42;2.70;;;0.75;;
10440;SDS011;5268;49.346;9.522;2022-09-09T14:05:46;2.22;;;0.70;;
10440;SDS011;5268;49.346;9.522;2022-09-09T14:10:48;1.85;;;0.60;;
10440;SDS011;5268;49.346;9.522;2022-09-09T14:15:50;1.80;;;0.68;;
10440;SDS011;5268;49.346;9.522;2022-09-09T14:20:55;2.90;;;0.90;;
10440;SDS011;5268;49.346;9.522;2022-09-09T14:25:58;2.42;;;0.82;;
10440;SDS011;5268;49.346;9.522;2022-09-09T14:31:00;2.65;;;0.90;;
10440;SDS011;5268;49.346;9.522;2022-09-09T14:36:05;2.47;;;0.80;;
10440;SDS011;5268;49.346;9.522;2022-09-09T14:41:08;2.60;;;0.85;;
10440;SDS011;5268;49.346;9.522;2022-09-09T14:46:12;2.42;;;0.73;;
10440;SDS011;5268;49.346;9.522;2022-09-09T14:51:17;2.22;;;0.82;;
10440;SDS011;5268;49.346;9.522;2022-09-09T14:56:23;2.22;;;0.80;;
10440;SDS011;5268;49.346;9.522;2022-09-09T15:01:26;1.30;;;0.70;;
10440;SDS011;5268;49.346;9.522;2022-09-09T15:06:31;3.03;;;0.70;;
10440;SDS011;5268;49.346;9.522;2022-09-09T15:11:35;1.92;;;0.68;;
10440;SDS011;5268;49.346;9.522;2022-09-09T15:16:38;2.10;;;0.60;;
10440;SDS011;5268;49.346;9.522;2022-09-09T15:21:42;1.35;;;0.73;;
10440;SDS011;5268;49.346;9.522;2022-09-09T15:26:44;1.98;;;0.63;;
10440;SDS011;5268;49.346;9.522;2022-09-09T15:31:46;1.25;;;0.60;;
10440;SDS011;5268;49.346;9.522;2022-09-09T15:36:49;1.25;;;0.60;;
10440;SDS011;5268;49.346;9.522;2022-09-09T15:41:51;1.65;;;0.60;;
10440;SDS011;5268;49.346;9.522;2022-09-09T15:46:53;2.35;;;0.60;;
10440;SDS011;5268;49.346;9.522;2022-09-09T15:51:58;1.50;;;0.70;;
10440;SDS011;5268;49.346;9.522;2022-09-09T15:57:04;0.75;;;0.55;;
10440;SDS011;5268;49.346;9.522;2022-09-09T16:02:08;2.10;;;0.90;;
10440;SDS011;5268;49.346;9.522;2022-09-09T16:07:12;1.73;;;0.70;;
10440;SDS011;5268;49.346;9.522;2022-09-09T16:12:14;1.65;;;0.63;;
10440;SDS011;5268;49.346;9.522;2022-09-09T16:17:16;1.13;;;0.70;;
10440;SDS011;5268;49.346;9.522;2022-09-09T16:22:21;1.63;;;0.60;;
10440;SDS011;5268;49.346;9.522;2022-09-09T16:27:24;0.68;;;0.55;;
10440;SDS011;5268;49.346;9.522;2022-09-09T16:32:26;3.13;;;0.65;;
10440;SDS011;5268;49.346;9.522;2022-09-09T16:37:30;2.13;;;0.73;;
10440;SDS011;5268;49.346;9.522;2022-09-09T16:42:34;1.48;;;0.70;;
10440;SDS011;5268;49.346;9.522;2022-09-09T16:47:36;2.38;;;0.90;;
10440;SDS011;5268;49.346;9.522;2022-09-09T16:52:39;0.98;;;0.68;;
10440;SDS011;5268;49.346;9.522;2022-09-09T16:57:41;2.13;;;0.77;;
10440;SDS011;5268;49.346;9.522;2022-09-09T17:02:43;7.47;;;1.98;;
10440;SDS011;5268;49.346;9.522;2022-09-09T17:07:46;2.13;;;0.80;;
10440;SDS011;5268;49.346;9.522;2022-09-09T17:12:48;3.28;;;0.95;;
10440;SDS011;5268;49.346;9.522;2022-09-09T17:17:50;2.22;;;0.80;;
10440;SDS011;5268;49.346;9.522;2022-09-09T17:22:56;2.40;;;0.80;;
10440;SDS011;5268;49.346;9.522;2022-09-09T17:27:57;1.92;;;0.90;;
10440;SDS011;5268;49.346;9.522;2022-09-09T17:32:59;1.48;;;0.77;;
10440;SDS011;5268;49.346;9.522;2022-09-09T17:38:03;1.63;;;0.80;;
10440;SDS011;5268;49.346;9.522;2022-09-09T17:43:05;1.85;;;0.98;;
10440;SDS011;5268;49.346;9.522;2022-09-09T17:48:08;1.48;;;0.73;;
10440;SDS011;5268;49.346;9.522;2022-09-09T17:53:12;2.42;;;0.80;;
10440;SDS011;5268;49.346;9.522;2022-09-09T17:58:13;1.73;;;1.02;;
10440;SDS011;5268;49.346;9.522;2022-09-09T18:03:16;2.80;;;0.90;;
10440;SDS011;5268;49.346;9.522;2022-09-09T18:08:19;1.70;;;0.70;;
10440;SDS011;5268;49.346;9.522;2022-09-09T18:13:21;3.78;;;0.98;;
10440;SDS011;5268;49.346;9.522;2022-09-09T18:18:24;3.05;;;0.90;;
10440;SDS011;5268;49.346;9.522;2022-09-09T18:23:28;2.15;;;0.90;;
10440;SDS011;5268;49.346;9.522;2022-09-09T18:28:31;3.63;;;1.00;;
10440;SDS011;5268;49.346;9.522;2022-09-09T18:33:34;1.20;;;0.90;;
10440;SDS011;5268;49.346;9.522;2022-09-09T18:38:39;3.08;;;1.25;;
10440;SDS011;5268;49.346;9.522;2022-09-09T18:43:41;1.23;;;1.00;;
10440;SDS011;5268;49.346;9.522;2022-09-09T18:48:43;3.25;;;1.15;;
10440;SDS011;5268;49.346;9.522;2022-09-09T18:53:49;1.52;;;1.00;;
10440;SDS011;5268;49.346;9.522;2022-09-09T18:58:54;2.05;;;1.08;;
10440;SDS011;5268;49.346;9.522;2022-09-09T19:03:57;3.25;;;1.20;;
10440;SDS011;5268;49.346;9.522;2022-09-09T19:09:02;1.10;;;0.90;;
10440;SDS011;5268;49.346;9.522;2022-09-09T19:14:04;2.13;;;1.20;;
10440;SDS011;5268;49.346;9.522;2022-09-09T19:19:10;1.13;;;0.80;;
10440;SDS011;5268;49.346;9.522;2022-09-09T19:24:16;2.13;;;0.93;;
10440;SDS011;5268;49.346;9.522;2022-09-09T19:29:21;3.28;;;1.20;;
10440;SDS011;5268;49.346;9.522;2022-09-09T19:34:24;2.72;;;1.10;;
10440;SDS011;5268;49.346;9.522;2022-09-09T19:39:27;2.25;;;1.00;;
10440;SDS011;5268;49.346;9.522;2022-09-09T19:44:31;2.72;;;1.10;;
10440;SDS011;5268;49.346;9.522;2022-09-09T19:49:32;1.65;;;0.90;;
10440;SDS011;5268;49.346;9.522;2022-09-09T19:54:37;1.73;;;1.08;;
10440;SDS011;5268;49.346;9.522;2022-09-09T19:59:39;1.17;;;0.82;;
10440;SDS011;5268;49.346;9.522;2022-09-09T20:04:41;1.80;;;0.90;;
10440;SDS011;5268;49.346;9.522;2022-09-09T20:09:44;1.20;;;0.80;;
10440;SDS011;5268;49.346;9.522;2022-09-09T20:14:48;1.98;;;1.00;;
10440;SDS011;5268;49.346;9.522;2022-09-09T20:19:49;1.00;;;0.73;;
10440;SDS011;5268;49.346;9.522;2022-09-09T20:24:53;2.33;;;0.90;;
10440;SDS011;5268;49.346;9.522;2022-09-09T20:29:57;3.00;;;0.77;;
10440;SDS011;5268;49.346;9.522;2022-09-09T20:34:59;2.15;;;1.00;;
10440;SDS011;5268;49.346;9.522;2022-09-09T20:40:03;1.98;;;1.10;;
10440;SDS011;5268;49.346;9.522;2022-09-09T20:45:05;3.15;;;1.13;;
10440;SDS011;5268;49.346;9.522;2022-09-09T20:50:11;3.13;;;1.10;;
10440;SDS011;5268;49.346;9.522;2022-09-09T20:55:15;2.47;;;0.95;;
10440;SDS011;5268;49.346;9.522;2022-09-09T21:00:17;2.13;;;0.93;;
10440;SDS011;5268;49.346;9.522;2022-09-09T21:05:19;1.55;;;1.00;;
10440;SDS011;5268;49.346;9.522;2022-09-09T21:10:22;0.90;;;0.80;;
10440;SDS011;5268;49.346;9.522;2022-09-09T21:15:25;2.80;;;0.90;;
10440;SDS011;5268;49.346;9.522;2022-09-09T21:20:27;1.60;;;0.82;;
10440;SDS011;5268;49.346;9.522;2022-09-09T21:25:31;3.50;;;1.15;;
